createdAt,value
2022-07-29T00:01:22.857Z,6.10
2022-07-29T00:03:51.231Z,6.03
2022-07-29T00:06:19.646Z,6.17
2022-07-29T00:08:47.848Z,6.77
2022-07-29T00:11:16.049Z,6.90
2022-07-29T00:13:47.725Z,6.03
2022-07-29T00:16:19.220Z,6.20
2022-07-29T00:18:48.958Z,6.10
2022-07-29T00:21:17.227Z,6.57
2022-07-29T00:23:45.429Z,6.17
2022-07-29T00:26:13.645Z,6.37
2022-07-29T00:28:42.009Z,5.80
2022-07-29T00:31:10.227Z,6.20
2022-07-29T00:33:38.528Z,6.40
2022-07-29T00:36:07.434Z,6.80
2022-07-29T00:38:35.787Z,6.57
2022-07-29T00:41:04.089Z,6.57
2022-07-29T00:43:32.893Z,7.47
2022-07-29T00:46:01.243Z,6.67
2022-07-29T00:48:29.592Z,6.53
2022-07-29T00:50:58.707Z,7.30
2022-07-29T00:53:29.242Z,6.57
2022-07-29T00:55:58.029Z,6.23
2022-07-29T00:58:26.959Z,7.33
2022-07-29T01:00:55.400Z,7.20
2022-07-29T01:03:23.781Z,6.40
2022-07-29T01:05:52.351Z,6.20
2022-07-29T01:08:21.224Z,6.90
2022-07-29T01:10:51.613Z,6.70
2022-07-29T01:13:20.312Z,6.37
2022-07-29T01:15:54.503Z,6.90
2022-07-29T01:18:26.695Z,6.10
2022-07-29T01:21:19.073Z,7.57
2022-07-29T01:24:14.267Z,7.80
2022-07-29T01:26:51.453Z,7.10
2022-07-29T01:29:25.564Z,6.67
2022-07-29T01:32:05.387Z,7.03
2022-07-29T01:34:38.487Z,6.63
2022-07-29T01:37:14.014Z,6.60
2022-07-29T01:39:43.972Z,7.37
2022-07-29T01:42:17.452Z,7.20
2022-07-29T01:44:53.328Z,6.93
2022-07-29T01:47:23.510Z,6.33
2022-07-29T01:49:54.154Z,7.00
2022-07-29T01:52:25.940Z,7.07
2022-07-29T01:54:58.173Z,7.13
2022-07-29T01:57:29.193Z,7.23
2022-07-29T01:59:59.861Z,6.67
2022-07-29T02:02:29.095Z,6.20
2022-07-29T02:04:58.362Z,7.20
2022-07-29T02:07:27.528Z,6.87
2022-07-29T02:09:56.119Z,6.90
2022-07-29T02:12:24.616Z,6.53
2022-07-29T02:14:54.306Z,6.63
2022-07-29T02:17:27.818Z,7.07
2022-07-29T02:19:58.675Z,6.73
2022-07-29T02:22:27.374Z,6.60
2022-07-29T02:24:56.059Z,6.77
2022-07-29T02:27:25.934Z,8.30
2022-07-29T02:29:55.029Z,7.57
2022-07-29T02:32:25.658Z,7.30
2022-07-29T02:34:54.726Z,7.70
2022-07-29T02:37:23.602Z,7.13
2022-07-29T02:39:54.474Z,6.83
2022-07-29T02:42:24.458Z,7.07
2022-07-29T02:44:53.004Z,8.27
2022-07-29T02:47:25.755Z,7.37
2022-07-29T02:49:57.159Z,8.20
2022-07-29T02:52:29.497Z,8.20
2022-07-29T02:54:59.354Z,8.00
2022-07-29T02:57:34.366Z,8.23
2022-07-29T03:00:06.141Z,8.70
2022-07-29T03:02:39.400Z,7.80
2022-07-29T03:05:11.009Z,7.30
2022-07-29T03:07:40.194Z,7.70
2022-07-29T03:10:10.873Z,7.90
2022-07-29T03:12:42.670Z,8.60
2022-07-29T03:15:12.398Z,7.57
2022-07-29T03:17:42.206Z,8.00
2022-07-29T03:20:11.974Z,8.30
2022-07-29T03:22:44.557Z,8.63
2022-07-29T03:25:13.961Z,8.30
2022-07-29T03:27:42.804Z,8.83
2022-07-29T03:30:12.657Z,9.00
2022-07-29T03:32:48.012Z,9.10
2022-07-29T03:35:35.094Z,8.60
2022-07-29T03:38:03.479Z,8.53
2022-07-29T03:40:35.315Z,8.70
2022-07-29T03:43:04.614Z,9.20
2022-07-29T03:45:33.628Z,9.90
2022-07-29T03:48:04.695Z,7.90
2022-07-29T03:50:33.420Z,8.53
2022-07-29T03:53:02.598Z,7.33
2022-07-29T03:55:31.816Z,7.97
2022-07-29T03:58:00.367Z,8.13
2022-07-29T04:00:29.369Z,8.30
2022-07-29T04:02:57.952Z,9.40
2022-07-29T04:05:27.531Z,9.50
2022-07-29T04:07:55.757Z,7.80
2022-07-29T04:10:30.637Z,10.93
2022-07-29T04:13:00.786Z,8.17
2022-07-29T04:15:31.414Z,8.77
2022-07-29T04:18:00.826Z,8.97
2022-07-29T04:20:30.460Z,8.63
2022-07-29T04:22:58.775Z,7.83
2022-07-29T04:25:27.874Z,8.90
2022-07-29T04:28:02.488Z,9.30
2022-07-29T04:30:31.732Z,9.23
2022-07-29T04:33:01.864Z,9.43
2022-07-29T04:35:38.007Z,8.40
2022-07-29T04:38:07.793Z,9.53
2022-07-29T04:40:44.051Z,9.40
2022-07-29T04:43:13.188Z,8.40
2022-07-29T04:45:43.616Z,8.00
2022-07-29T04:48:12.155Z,9.00
2022-07-29T04:50:41.972Z,9.00
2022-07-29T04:53:10.417Z,8.57
2022-07-29T04:55:38.828Z,9.20
2022-07-29T04:58:08.541Z,9.50
2022-07-29T05:00:36.787Z,9.43
2022-07-29T05:03:05.353Z,9.83
2022-07-29T05:05:33.645Z,9.37
2022-07-29T05:08:03.189Z,8.03
2022-07-29T05:10:31.481Z,8.80
2022-07-29T05:12:59.634Z,8.57
2022-07-29T05:15:27.933Z,8.83
2022-07-29T05:17:56.200Z,9.47
2022-07-29T05:20:27.681Z,8.80
2022-07-29T05:22:56.208Z,8.40
2022-07-29T05:25:40.743Z,9.60
2022-07-29T05:28:12.600Z,8.70
2022-07-29T05:30:41.311Z,8.53
2022-07-29T05:33:09.557Z,8.90
2022-07-29T05:36:00.555Z,9.33
2022-07-29T05:38:29.425Z,8.60
2022-07-29T05:41:00.890Z,8.90
2022-07-29T05:43:29.297Z,8.97
2022-07-29T05:45:57.799Z,9.17
2022-07-29T05:48:26.414Z,8.57
2022-07-29T05:50:54.647Z,7.80
2022-07-29T05:53:23.018Z,7.93
2022-07-29T05:55:51.602Z,8.30
2022-07-29T05:58:21.639Z,7.63
2022-07-29T06:00:49.960Z,7.10
2022-07-29T06:03:18.238Z,6.83
2022-07-29T06:05:46.539Z,8.47
2022-07-29T06:08:14.799Z,7.90
2022-07-29T06:10:44.148Z,7.70
2022-07-29T06:13:12.424Z,8.40
2022-07-29T06:15:42.676Z,7.87
2022-07-29T06:18:12.318Z,7.50
2022-07-29T06:20:40.586Z,7.77
2022-07-29T06:23:09.185Z,7.10
2022-07-29T06:25:37.821Z,7.27
2022-07-29T06:28:06.735Z,6.87
2022-07-29T06:30:35.207Z,7.37
2022-07-29T06:33:05.566Z,7.07
2022-07-29T06:35:38.840Z,7.00
2022-07-29T06:38:30.229Z,7.97
2022-07-29T06:41:02.852Z,8.23
2022-07-29T06:43:34.978Z,7.90
2022-07-29T06:46:05.193Z,7.50
2022-07-29T06:48:35.944Z,7.10
2022-07-29T06:51:05.204Z,7.37
2022-07-29T06:53:34.321Z,7.47
2022-07-29T06:56:03.496Z,7.23
2022-07-29T06:58:31.998Z,7.27
2022-07-29T07:01:02.729Z,6.53
2022-07-29T07:03:31.262Z,7.17
2022-07-29T07:06:01.118Z,7.07
2022-07-29T07:08:29.276Z,6.47
2022-07-29T07:10:57.979Z,6.50
2022-07-29T07:13:26.838Z,6.70
2022-07-29T07:15:55.022Z,6.50
2022-07-29T07:18:23.157Z,7.10
2022-07-29T07:20:51.978Z,6.70
2022-07-29T07:23:21.577Z,6.47
2022-07-29T07:25:52.580Z,6.23
2022-07-29T07:28:24.585Z,6.40
2022-07-29T07:30:53.742Z,6.93
2022-07-29T07:33:22.169Z,7.13
2022-07-29T07:35:50.374Z,7.07
2022-07-29T07:38:18.586Z,6.60
2022-07-29T07:40:48.635Z,6.60
2022-07-29T07:43:16.858Z,6.30
2022-07-29T07:45:45.120Z,5.73
2022-07-29T07:48:13.317Z,6.33
2022-07-29T07:50:41.592Z,6.53
2022-07-29T07:53:09.937Z,5.63
2022-07-29T07:56:08.228Z,6.07
2022-07-29T07:58:31.694Z,5.67
2022-07-29T08:01:00.008Z,5.53
2022-07-29T08:03:28.206Z,5.87
2022-07-29T08:05:56.755Z,5.33
2022-07-29T08:08:24.896Z,5.40
2022-07-29T08:10:57.014Z,5.67
2022-07-29T08:13:29.190Z,5.13
2022-07-29T08:16:02.692Z,5.47
2022-07-29T08:18:32.276Z,5.43
2022-07-29T08:21:00.706Z,5.77
2022-07-29T08:23:45.962Z,5.30
2022-07-29T08:26:17.243Z,5.10
2022-07-29T08:28:47.100Z,5.33
2022-07-29T08:31:17.390Z,4.83
2022-07-29T08:33:46.916Z,4.60
2022-07-29T08:36:15.319Z,4.87
2022-07-29T08:38:43.460Z,5.20
2022-07-29T08:41:11.897Z,5.13
2022-07-29T08:43:42.837Z,4.80
2022-07-29T08:46:11.366Z,4.87
2022-07-29T08:48:41.369Z,4.20
2022-07-29T08:51:10.524Z,5.40
2022-07-29T08:53:39.191Z,4.90
2022-07-29T08:56:08.417Z,5.57
2022-07-29T08:58:38.396Z,4.77
2022-07-29T09:01:07.565Z,4.70
2022-07-29T09:03:42.469Z,5.50
2022-07-29T09:06:10.919Z,4.73
2022-07-29T09:08:39.117Z,4.60
2022-07-29T09:11:08.484Z,5.13
2022-07-29T09:13:36.970Z,4.80
2022-07-29T09:16:09.329Z,4.60
2022-07-29T09:18:41.009Z,5.47
2022-07-29T09:21:28.359Z,5.30
2022-07-29T09:24:04.332Z,5.10
2022-07-29T09:26:34.801Z,6.43
2022-07-29T09:29:10.393Z,4.83
2022-07-29T09:31:41.994Z,4.47
2022-07-29T09:34:12.497Z,4.50
2022-07-29T09:36:44.181Z,5.23
2022-07-29T09:39:12.897Z,5.17
2022-07-29T09:41:48.972Z,5.67
2022-07-29T09:44:17.355Z,5.27
2022-07-29T09:47:06.989Z,4.93
2022-07-29T09:49:37.312Z,5.00
2022-07-29T09:52:07.472Z,5.23
2022-07-29T09:54:38.738Z,5.20
2022-07-29T09:57:08.247Z,4.40
2022-07-29T09:59:36.637Z,5.17
2022-07-29T10:02:23.453Z,4.60
2022-07-29T10:04:53.761Z,5.13
2022-07-29T10:07:21.960Z,5.27
2022-07-29T10:09:57.510Z,5.47
2022-07-29T10:12:26.067Z,4.50
2022-07-29T10:14:54.307Z,4.40
2022-07-29T10:17:23.076Z,4.53
2022-07-29T10:19:53.160Z,4.87
2022-07-29T10:22:50.395Z,3.63
2022-07-29T10:25:10.406Z,4.40
2022-07-29T10:27:40.137Z,4.67
2022-07-29T10:30:10.734Z,4.30
2022-07-29T10:33:09.506Z,5.33
2022-07-29T10:35:56.846Z,4.80
2022-07-29T10:38:45.797Z,3.80
2022-07-29T10:41:31.928Z,4.27
2022-07-29T10:44:03.459Z,4.50
2022-07-29T10:46:37.449Z,4.23
2022-07-29T10:49:15.472Z,4.80
2022-07-29T10:52:05.973Z,4.80
2022-07-29T10:54:44.112Z,3.93
2022-07-29T10:57:52.565Z,4.17
2022-07-29T11:00:34.910Z,4.40
2022-07-29T11:03:10.606Z,4.33
2022-07-29T11:06:03.273Z,4.30
2022-07-29T11:08:39.052Z,4.60
2022-07-29T11:11:39.638Z,4.27
2022-07-29T11:14:12.513Z,3.80
2022-07-29T11:17:07.059Z,4.30
2022-07-29T11:19:40.262Z,4.33
2022-07-29T11:22:11.980Z,5.03
2022-07-29T11:24:50.201Z,5.20
2022-07-29T11:27:21.177Z,4.73
2022-07-29T11:29:56.929Z,4.47
2022-07-29T11:32:29.222Z,4.80
2022-07-29T11:35:27.684Z,4.30
2022-07-29T11:38:35.961Z,5.33
2022-07-29T11:41:25.465Z,5.10
2022-07-29T11:43:55.201Z,4.57
2022-07-29T11:46:46.514Z,4.47
2022-07-29T11:49:15.483Z,4.97
2022-07-29T11:51:48.644Z,5.00
2022-07-29T11:54:19.488Z,4.80
2022-07-29T11:56:57.603Z,4.57
2022-07-29T11:59:33.034Z,4.80
2022-07-29T12:02:33.196Z,4.70
2022-07-29T12:04:52.147Z,4.60
2022-07-29T12:07:21.155Z,4.70
2022-07-29T12:10:01.274Z,4.97
2022-07-29T12:12:30.985Z,4.63
2022-07-29T12:14:59.141Z,4.73
2022-07-29T12:17:30.491Z,4.10
2022-07-29T12:19:59.523Z,4.37
2022-07-29T12:22:29.075Z,4.40
2022-07-29T12:25:17.124Z,5.33
2022-07-29T12:27:48.637Z,5.50
2022-07-29T12:30:19.533Z,5.73
2022-07-29T12:32:49.652Z,5.33
2022-07-29T12:35:20.187Z,5.50
2022-07-29T12:37:52.760Z,4.90
2022-07-29T12:40:23.972Z,5.60
2022-07-29T12:43:11.402Z,4.63
2022-07-29T12:45:39.806Z,4.80
2022-07-29T12:48:09.686Z,4.70
2022-07-29T12:50:38.853Z,4.67
2022-07-29T12:53:14.495Z,4.20
2022-07-29T12:55:49.940Z,4.87
2022-07-29T12:58:30.356Z,4.83
2022-07-29T13:01:07.418Z,5.27
2022-07-29T13:03:57.544Z,4.80
2022-07-29T13:06:33.309Z,4.27
2022-07-29T13:09:03.129Z,5.00
2022-07-29T13:11:34.132Z,4.93
2022-07-29T13:14:06.808Z,4.63
2022-07-29T13:16:35.632Z,4.70
2022-07-29T13:19:11.775Z,5.27
2022-07-29T13:21:41.164Z,4.73
2022-07-29T13:24:10.013Z,4.80
2022-07-29T13:26:42.611Z,5.00
2022-07-29T13:29:12.247Z,4.47
2022-07-29T13:31:40.505Z,5.17
2022-07-29T13:34:08.769Z,4.63
2022-07-29T13:36:41.369Z,5.10
2022-07-29T13:39:09.912Z,4.60
2022-07-29T13:41:38.273Z,4.50
2022-07-29T13:44:07.248Z,5.20
2022-07-29T13:46:36.843Z,5.00
2022-07-29T13:49:08.586Z,4.60
2022-07-29T13:51:36.856Z,5.60
2022-07-29T13:54:05.109Z,5.37
2022-07-29T13:56:33.586Z,5.10
2022-07-29T13:59:01.822Z,4.53
2022-07-29T14:01:31.437Z,5.60
2022-07-29T14:04:01.263Z,4.93
2022-07-29T14:06:29.991Z,5.20
2022-07-29T14:08:58.359Z,5.70
2022-07-29T14:11:26.590Z,4.80
2022-07-29T14:13:54.810Z,4.83
2022-07-29T14:16:23.198Z,4.83
2022-07-29T14:18:51.403Z,5.03
2022-07-29T14:21:21.054Z,5.50
2022-07-29T14:23:49.341Z,4.90
2022-07-29T14:26:21.705Z,4.70
2022-07-29T14:28:52.635Z,5.47
2022-07-29T14:31:20.951Z,4.77
2022-07-29T14:33:49.704Z,4.90
2022-07-29T14:36:18.036Z,4.70
2022-07-29T14:38:47.657Z,4.87
2022-07-29T14:41:16.181Z,5.40
2022-07-29T14:43:44.500Z,5.90
2022-07-29T14:46:12.975Z,5.70
2022-07-29T14:48:41.237Z,5.50
2022-07-29T14:51:09.479Z,5.40
2022-07-29T14:53:37.753Z,4.53
2022-07-29T14:56:34.176Z,5.57
2022-07-29T14:58:56.010Z,5.30
2022-07-29T15:01:24.371Z,5.57
2022-07-29T15:03:55.744Z,5.17
2022-07-29T15:06:27.900Z,5.43
2022-07-29T15:08:56.226Z,5.13
2022-07-29T15:11:26.548Z,4.90
2022-07-29T15:13:55.253Z,4.97
2022-07-29T15:16:23.521Z,5.20
2022-07-29T15:18:52.653Z,5.13
2022-07-29T15:21:20.872Z,5.00
2022-07-29T15:23:49.231Z,5.43
2022-07-29T15:26:17.518Z,4.50
2022-07-29T15:28:47.150Z,4.80
2022-07-29T15:31:15.545Z,5.27
2022-07-29T15:33:43.926Z,4.83
2022-07-29T15:36:25.493Z,5.50
2022-07-29T15:39:02.232Z,4.70
2022-07-29T15:41:30.409Z,4.43
2022-07-29T15:44:00.237Z,5.00
2022-07-29T15:46:46.075Z,5.40
2022-07-29T15:49:14.366Z,4.67
2022-07-29T15:51:42.801Z,5.23
2022-07-29T15:54:11.067Z,4.27
2022-07-29T15:56:39.323Z,4.83
2022-07-29T15:59:08.995Z,4.43
2022-07-29T16:01:37.163Z,4.70
2022-07-29T16:04:10.864Z,5.20
2022-07-29T16:06:39.090Z,4.80
2022-07-29T16:09:07.520Z,5.30
2022-07-29T16:11:35.876Z,4.50
2022-07-29T16:14:04.650Z,5.00
2022-07-29T16:16:34.256Z,4.77
2022-07-29T16:19:02.702Z,5.13
2022-07-29T16:21:31.789Z,5.20
2022-07-29T16:24:01.124Z,5.20
2022-07-29T16:26:29.526Z,4.90
2022-07-29T16:28:57.949Z,4.57
2022-07-29T16:31:26.648Z,4.93
2022-07-29T16:33:56.418Z,5.40
2022-07-29T16:36:24.606Z,4.90
2022-07-29T16:38:53.074Z,4.73
2022-07-29T16:41:21.326Z,5.13
2022-07-29T16:43:49.520Z,5.00
2022-07-29T16:46:18.872Z,4.60
2022-07-29T16:48:47.711Z,7.70
2022-07-29T16:51:18.240Z,5.50
2022-07-29T16:53:48.918Z,5.93
2022-07-29T16:56:18.768Z,4.37
2022-07-29T16:58:47.268Z,4.53
2022-07-29T17:01:16.130Z,4.80
2022-07-29T17:04:00.103Z,5.70
2022-07-29T17:06:30.389Z,4.40
2022-07-29T17:08:58.764Z,4.80
2022-07-29T17:11:52.659Z,4.73
2022-07-29T17:14:15.327Z,4.90
2022-07-29T17:17:00.170Z,4.90
2022-07-29T17:19:30.417Z,4.33
2022-07-29T17:22:10.151Z,4.73
2022-07-29T17:24:41.319Z,4.80
2022-07-29T17:27:10.233Z,5.20
2022-07-29T17:29:38.965Z,4.93
2022-07-29T17:32:10.786Z,5.07
2022-07-29T17:34:39.835Z,5.00
2022-07-29T17:37:10.772Z,5.40
2022-07-29T17:39:40.824Z,5.33
2022-07-29T17:42:09.704Z,5.20
2022-07-29T17:44:38.008Z,5.90
2022-07-29T17:47:07.912Z,5.10
2022-07-29T17:49:43.824Z,5.50
2022-07-29T17:52:13.577Z,5.00
2022-07-29T17:54:41.853Z,5.13
2022-07-29T17:57:10.238Z,5.27
2022-07-29T17:59:38.582Z,5.23
2022-07-29T18:02:06.984Z,5.23
2022-07-29T18:04:35.249Z,5.80
2022-07-29T18:07:03.558Z,5.53
2022-07-29T18:09:33.158Z,5.23
2022-07-29T18:12:01.604Z,5.93
2022-07-29T18:14:29.839Z,6.30
2022-07-29T18:16:58.153Z,6.70
2022-07-29T18:19:26.471Z,6.30
2022-07-29T18:21:56.566Z,6.10
2022-07-29T18:24:27.710Z,5.87
2022-07-29T18:26:57.772Z,6.10
2022-07-29T18:29:29.062Z,6.20
2022-07-29T18:31:58.927Z,6.40
2022-07-29T18:34:27.164Z,6.77
2022-07-29T18:36:55.767Z,6.67
2022-07-29T18:39:24.104Z,6.30
2022-07-29T18:41:52.574Z,6.20
2022-07-29T18:44:22.682Z,6.40
2022-07-29T18:46:51.985Z,6.70
2022-07-29T18:49:20.676Z,6.60
2022-07-29T18:51:49.061Z,6.97
2022-07-29T18:54:18.450Z,7.00
2022-07-29T18:56:47.205Z,6.63
2022-07-29T18:59:19.734Z,6.70
2022-07-29T19:01:49.909Z,6.67
2022-07-29T19:04:18.843Z,7.33
2022-07-29T19:06:47.122Z,7.23
2022-07-29T19:09:16.300Z,8.00
2022-07-29T19:11:44.894Z,7.60
2022-07-29T19:14:13.349Z,7.43
2022-07-29T19:16:41.559Z,7.80
2022-07-29T19:19:11.196Z,7.90
2022-07-29T19:21:39.594Z,7.87
2022-07-29T19:24:12.295Z,7.43
2022-07-29T19:26:46.842Z,6.77
2022-07-29T19:29:15.266Z,7.10
2022-07-29T19:31:43.696Z,6.53
2022-07-29T19:34:13.511Z,7.00
2022-07-29T19:36:41.939Z,7.20
2022-07-29T19:39:10.466Z,6.83
2022-07-29T19:41:38.970Z,7.83
2022-07-29T19:44:07.253Z,8.30
2022-07-29T19:46:38.776Z,8.07
2022-07-29T19:49:07.278Z,7.33
2022-07-29T19:51:37.251Z,7.67
2022-07-29T19:54:06.438Z,7.20
2022-07-29T19:56:34.633Z,7.50
2022-07-29T19:59:07.399Z,7.33
2022-07-29T20:01:36.059Z,7.50
2022-07-29T20:04:04.441Z,7.70
2022-07-29T20:06:32.653Z,8.43
2022-07-29T20:09:02.268Z,9.30
2022-07-29T20:11:30.767Z,8.17
2022-07-29T20:13:58.996Z,9.00
2022-07-29T20:16:27.329Z,8.80
2022-07-29T20:18:55.618Z,9.77
2022-07-29T20:21:23.889Z,8.97
2022-07-29T20:23:52.062Z,9.30
2022-07-29T20:26:22.051Z,9.17
2022-07-29T20:28:51.116Z,9.87
2022-07-29T20:31:19.847Z,9.60
2022-07-29T20:33:48.647Z,9.47
2022-07-29T20:36:17.022Z,8.03
2022-07-29T20:38:45.359Z,7.03
2022-07-29T20:41:13.621Z,5.63
2022-07-29T20:43:43.810Z,7.40
2022-07-29T20:46:12.094Z,8.20
2022-07-29T20:48:40.923Z,8.43
2022-07-29T20:51:10.337Z,10.70
2022-07-29T20:53:39.946Z,7.87
2022-07-29T20:56:08.703Z,8.00
2022-07-29T20:58:38.263Z,10.07
2022-07-29T21:01:08.274Z,10.97
2022-07-29T21:03:38.076Z,11.47
2022-07-29T21:06:07.838Z,11.50
2022-07-29T21:08:36.342Z,12.80
2022-07-29T21:11:04.832Z,11.27
2022-07-29T21:13:38.267Z,11.13
2022-07-29T21:16:14.749Z,12.00
2022-07-29T21:18:46.081Z,12.17
2022-07-29T21:21:15.198Z,14.40
2022-07-29T21:23:44.326Z,13.73
2022-07-29T21:26:13.246Z,13.30
2022-07-29T21:28:40.726Z,15.33
2022-07-29T21:31:12.524Z,14.80
2022-07-29T21:33:42.015Z,12.47
2022-07-29T21:36:46.104Z,15.30
2022-07-29T21:38:59.867Z,14.73
2022-07-29T21:41:28.263Z,13.93
2022-07-29T21:43:59.469Z,6.97
2022-07-29T21:46:30.823Z,9.57
2022-07-29T21:48:59.183Z,9.60
2022-07-29T21:51:27.523Z,9.63
2022-07-29T21:53:56.012Z,8.90
2022-07-29T21:56:27.522Z,8.47
2022-07-29T21:58:56.532Z,8.47
2022-07-29T22:01:25.511Z,8.60
2022-07-29T22:03:55.456Z,6.07
2022-07-29T22:06:23.638Z,7.40
2022-07-29T22:08:52.020Z,7.47
2022-07-29T22:11:20.744Z,7.40
2022-07-29T22:13:49.054Z,7.20
2022-07-29T22:16:17.681Z,8.13
2022-07-29T22:18:47.123Z,8.10
2022-07-29T22:21:16.776Z,8.60
2022-07-29T22:23:46.251Z,9.37
2022-07-29T22:26:14.924Z,8.50
2022-07-29T22:28:43.115Z,8.37
2022-07-29T22:31:11.396Z,7.90
2022-07-29T22:33:39.773Z,8.77
2022-07-29T22:36:08.609Z,9.10
2022-07-29T22:38:38.587Z,8.47
2022-07-29T22:41:06.809Z,8.93
2022-07-29T22:43:36.699Z,7.50
2022-07-29T22:46:05.147Z,7.60
2022-07-29T22:48:33.698Z,7.57
2022-07-29T22:51:02.109Z,7.33
2022-07-29T22:53:30.566Z,6.90
2022-07-29T22:56:00.223Z,5.90
2022-07-29T22:58:28.452Z,6.37
2022-07-29T23:00:56.853Z,6.40
2022-07-29T23:03:25.328Z,5.77
2022-07-29T23:05:53.571Z,6.13
2022-07-29T23:08:21.977Z,5.80
2022-07-29T23:10:50.260Z,6.63
2022-07-29T23:13:19.988Z,6.03
2022-07-29T23:15:48.222Z,6.20
2022-07-29T23:18:16.576Z,5.87
2022-07-29T23:20:47.131Z,6.20
2022-07-29T23:23:15.336Z,7.53
2022-07-29T23:25:43.597Z,6.80
2022-07-29T23:28:13.197Z,6.63
2022-07-29T23:30:43.363Z,6.43
2022-07-29T23:33:11.698Z,5.93
2022-07-29T23:35:39.949Z,6.60
2022-07-29T23:38:08.412Z,7.37
2022-07-29T23:40:36.722Z,7.23
2022-07-29T23:43:08.733Z,6.90
2022-07-29T23:45:44.637Z,6.50
2022-07-29T23:48:18.246Z,6.40
2022-07-29T23:50:46.528Z,6.80
2022-07-29T23:53:15.224Z,6.93
2022-07-29T23:55:43.655Z,6.50
2022-07-29T23:58:12.003Z,6.37
